Time;durP1;ratioP1;P1;durP2;ratioP2;P2;SDS_P1;SDS_P2;PMS_P1;PMS_P2;Temp;Humidity;BMP_temperature;BMP_pressure;BME280_temperature;BME280_humidity;BME280_pressure;Samples;Min_cycle;Max_cycle;Signal;HPM_P1;HPM_P2
2021/05/21 00:00:41;;;;;;;5.85;3.20;;;10.10;99.90;;;;;;4970682;28;20381;-71
2021/05/21 00:03:06;;;;;;;3.00;2.70;;;10.10;99.90;;;;;;4973356;28;20117;-71
2021/05/21 00:05:32;;;;;;;3.45;3.15;;;10.10;99.90;;;;;;4975833;28;20023;-71
2021/05/21 00:07:58;;;;;;;7.75;2.83;;;10.10;99.90;;;;;;4975632;28;20058;-72
2021/05/21 00:10:24;;;;;;;3.05;2.75;;;10.10;99.90;;;;;;4974018;28;20059;-72
2021/05/21 00:12:50;;;;;;;2.60;2.40;;;10.00;99.90;;;;;;4974934;28;20118;-71
2021/05/21 00:15:16;;;;;;;3.05;2.63;;;9.90;99.90;;;;;;4975009;28;20027;-70
2021/05/21 00:17:42;;;;;;;3.33;2.75;;;9.80;99.90;;;;;;4974205;28;20053;-71
2021/05/21 00:20:08;;;;;;;2.40;2.20;;;9.90;99.90;;;;;;4975533;28;20022;-71
2021/05/21 00:22:34;;;;;;;6.95;3.20;;;9.80;99.90;;;;;;4975412;28;20482;-71
2021/05/21 00:24:59;;;;;;;3.20;2.90;;;9.90;99.90;;;;;;4960661;28;20092;-71
2021/05/21 00:27:25;;;;;;;5.50;3.22;;;10.00;99.90;;;;;;4954667;29;20122;-71
2021/05/21 00:29:51;;;;;;;3.22;2.70;;;10.00;99.90;;;;;;4955407;28;20081;-71
2021/05/21 00:32:17;;;;;;;4.57;3.13;;;10.00;99.90;;;;;;4955912;28;20023;-71
2021/05/21 00:34:42;;;;;;;3.85;3.42;;;10.00;99.90;;;;;;4955222;28;20030;-72
2021/05/21 00:37:08;;;;;;;3.45;3.13;;;10.00;99.90;;;;;;4955745;28;20039;-71
2021/05/21 00:39:33;;;;;;;5.18;2.88;;;9.90;99.90;;;;;;4963798;28;20093;-72
2021/05/21 00:41:59;;;;;;;3.35;3.00;;;9.90;99.90;;;;;;4973818;28;20054;-71
2021/05/21 00:44:25;;;;;;;3.47;3.17;;;9.80;99.90;;;;;;4972674;28;20086;-72
2021/05/21 00:46:51;;;;;;;3.22;2.92;;;9.90;99.90;;;;;;4974644;28;20062;-71
2021/05/21 00:49:19;;;;;;;3.70;3.40;;;9.90;99.90;;;;;;4975034;28;20030;-71
2021/05/21 00:51:46;;;;;;;7.70;3.47;;;9.90;99.90;;;;;;4974989;28;20556;-71
2021/05/21 00:54:16;;;;;;;3.65;3.30;;;9.90;99.90;;;;;;4974199;28;20098;-71
2021/05/21 00:56:42;;;;;;;3.42;3.13;;;9.90;99.90;;;;;;4974668;28;20026;-71
2021/05/21 00:59:08;;;;;;;5.25;3.10;;;9.90;99.90;;;;;;4974526;28;20033;-71
2021/05/21 01:01:34;;;;;;;4.88;3.58;;;9.80;99.90;;;;;;4974428;28;20038;-71
2021/05/21 01:03:59;;;;;;;3.72;3.22;;;9.80;99.90;;;;;;4974025;28;20238;-71
2021/05/21 01:06:25;;;;;;;3.35;3.15;;;9.80;99.90;;;;;;4974505;28;20062;-71
2021/05/21 01:08:51;;;;;;;3.88;3.17;;;9.70;99.90;;;;;;4974519;28;20027;-71
2021/05/21 01:11:17;;;;;;;2.85;2.65;;;9.70;99.90;;;;;;4974288;28;20026;-72
2021/05/21 01:13:42;;;;;;;6.05;3.05;;;9.70;99.90;;;;;;4971561;28;20157;-71
2021/05/21 01:16:08;;;;;;;3.20;2.97;;;9.70;99.90;;;;;;4973835;28;20113;-71
2021/05/21 01:18:34;;;;;;;2.65;2.45;;;9.70;99.90;;;;;;4974336;28;20077;-71
2021/05/21 01:21:00;;;;;;;4.97;3.38;;;9.60;99.90;;;;;;4974357;28;20035;-71
2021/05/21 01:23:27;;;;;;;18.98;4.07;;;9.60;99.90;;;;;;4973518;28;20037;-71
2021/05/21 01:25:52;;;;;;;3.97;2.72;;;9.60;99.90;;;;;;4974011;28;20153;-71
2021/05/21 01:28:19;;;;;;;4.07;3.08;;;9.50;99.90;;;;;;4974113;28;20098;-71
2021/05/21 01:30:45;;;;;;;3.67;2.92;;;9.50;99.90;;;;;;4973806;28;20032;-71
2021/05/21 01:33:11;;;;;;;3.28;2.95;;;9.40;99.90;;;;;;4973525;28;20027;-71
2021/05/21 01:35:38;;;;;;;3.55;3.10;;;9.50;99.90;;;;;;4973852;28;20492;-71
2021/05/21 01:38:04;;;;;;;3.85;3.42;;;9.50;99.90;;;;;;4974074;28;20572;-71
2021/05/21 01:40:31;;;;;;;4.97;2.88;;;9.50;99.90;;;;;;4973908;28;20065;-71
2021/05/21 01:43:00;;;;;;;3.58;3.22;;;9.50;99.90;;;;;;4973091;28;20446;-71
2021/05/21 01:45:26;;;;;;;4.80;3.00;;;9.50;99.90;;;;;;4973456;28;20034;-72
2021/05/21 01:47:51;;;;;;;6.70;3.80;;;9.50;99.90;;;;;;4972349;28;20030;-71
2021/05/21 01:50:17;;;;;;;4.18;3.30;;;9.50;99.90;;;;;;4973677;28;20548;-71
2021/05/21 01:52:44;;;;;;;5.80;3.28;;;9.50;99.90;;;;;;4973386;28;20441;-71
2021/05/21 01:55:11;;;;;;;4.40;2.80;;;9.40;99.90;;;;;;4972295;28;20516;-71
2021/05/21 01:57:38;;;;;;;3.00;2.78;;;9.50;99.90;;;;;;4973350;28;20030;-71
2021/05/21 02:00:07;;;;;;;3.22;2.97;;;9.40;99.90;;;;;;4973345;28;20466;-71
2021/05/21 02:02:33;;;;;;;3.13;2.83;;;9.50;99.90;;;;;;4972107;28;20030;-71
2021/05/21 02:04:59;;;;;;;4.97;3.00;;;9.50;99.90;;;;;;4972885;28;20025;-71
2021/05/21 02:07:24;;;;;;;4.32;2.97;;;9.50;99.90;;;;;;4973498;28;20034;-71
2021/05/21 02:09:54;;;;;;;3.97;2.63;;;9.40;99.90;;;;;;4974511;28;20114;-71
2021/05/21 02:12:22;;;;;;;2.80;2.60;;;9.30;99.90;;;;;;4974226;28;20114;-71
2021/05/21 02:14:47;;;;;;;10.25;3.47;;;9.30;99.90;;;;;;4972306;28;20027;-71
2021/05/21 02:17:13;;;;;;;3.47;3.17;;;9.30;99.90;;;;;;4973316;28;20042;-71
2021/05/21 02:19:39;;;;;;;5.25;3.22;;;9.30;99.90;;;;;;4973273;28;20035;-71
2021/05/21 02:22:06;;;;;;;2.80;2.53;;;9.20;99.90;;;;;;4973271;28;20031;-71
2021/05/21 02:24:32;;;;;;;3.67;2.83;;;9.20;99.90;;;;;;4971643;28;20038;-71
2021/05/21 02:26:58;;;;;;;3.08;2.85;;;9.10;99.90;;;;;;4987977;28;20035;-71
2021/05/21 02:29:23;;;;;;;5.13;3.05;;;9.10;99.90;;;;;;4972990;28;20109;-71
2021/05/21 02:31:49;;;;;;;4.43;3.75;;;9.10;99.90;;;;;;4972315;28;20027;-71
2021/05/21 02:34:15;;;;;;;5.43;4.30;;;9.10;99.90;;;;;;4971119;28;20033;-72
2021/05/21 02:36:40;;;;;;;3.60;3.30;;;9.00;99.90;;;;;;4971769;28;20038;-71
2021/05/21 02:39:06;;;;;;;6.35;4.22;;;9.00;99.90;;;;;;4967035;28;20553;-71
2021/05/21 02:41:32;;;;;;;3.22;3.00;;;9.00;99.90;;;;;;4953420;28;20110;-72
2021/05/21 02:43:58;;;;;;;4.40;3.03;;;9.00;99.90;;;;;;4952860;28;20102;-71
2021/05/21 02:46:23;;;;;;;3.25;3.00;;;8.90;99.90;;;;;;4953192;28;20698;-72
2021/05/21 02:48:49;;;;;;;7.47;3.05;;;8.90;99.90;;;;;;4953475;28;20547;-71
2021/05/21 02:51:14;;;;;;;3.40;3.08;;;8.90;99.90;;;;;;4953736;28;20556;-72
2021/05/21 02:53:40;;;;;;;3.17;2.92;;;8.90;99.90;;;;;;4952850;28;20115;-70
2021/05/21 02:56:06;;;;;;;6.25;3.80;;;8.80;99.90;;;;;;4953287;28;20402;-71
2021/05/21 02:58:31;;;;;;;3.60;3.20;;;8.80;99.90;;;;;;4953091;28;20446;-71
2021/05/21 03:00:57;;;;;;;7.07;2.97;;;8.80;99.90;;;;;;4951634;29;20118;-70
2021/05/21 03:03:22;;;;;;;3.75;3.45;;;8.70;99.90;;;;;;4952725;28;20122;-71
2021/05/21 03:05:48;;;;;;;4.68;3.80;;;8.70;99.90;;;;;;4953099;28;20166;-71
2021/05/21 03:08:14;;;;;;;4.20;3.80;;;8.70;99.90;;;;;;4953317;28;20023;-71
2021/05/21 03:10:40;;;;;;;3.22;3.03;;;8.60;99.90;;;;;;4969763;28;20057;-71
2021/05/21 03:13:06;;;;;;;3.45;3.15;;;8.60;99.90;;;;;;4971791;28;20105;-71
2021/05/21 03:15:31;;;;;;;5.38;3.28;;;8.50;99.90;;;;;;4972203;28;20022;-71
2021/05/21 03:17:59;;;;;;;3.63;3.33;;;8.50;99.90;;;;;;4972367;28;20030;-71
2021/05/21 03:20:25;;;;;;;5.35;3.42;;;8.50;99.90;;;;;;4972482;28;20023;-72
2021/05/21 03:22:51;;;;;;;4.60;3.20;;;8.40;99.90;;;;;;4971584;28;20050;-72
2021/05/21 03:25:16;;;;;;;5.00;3.47;;;8.50;99.90;;;;;;4974243;28;20038;-72
2021/05/21 03:27:42;;;;;;;3.90;3.60;;;8.40;99.90;;;;;;4973412;28;20027;-71
2021/05/21 03:30:10;;;;;;;5.40;4.35;;;8.20;99.90;;;;;;4973219;28;20023;-71
2021/05/21 03:32:36;;;;;;;4.20;3.90;;;8.30;99.90;;;;;;4972668;28;20023;-71
2021/05/21 03:35:03;;;;;;;3.92;3.55;;;8.20;99.90;;;;;;4972226;28;20023;-72
2021/05/21 03:37:29;;;;;;;3.90;3.35;;;8.20;99.90;;;;;;4975203;28;20121;-71
2021/05/21 03:39:54;;;;;;;3.28;2.97;;;8.20;99.90;;;;;;4977930;28;20058;-71
2021/05/21 03:42:20;;;;;;;3.38;2.88;;;8.10;99.90;;;;;;4977407;28;20077;-71
2021/05/21 03:44:46;;;;;;;4.82;3.42;;;8.10;99.90;;;;;;4975339;28;20035;-71
2021/05/21 03:47:12;;;;;;;4.22;2.97;;;8.10;99.90;;;;;;4974752;28;20102;-72
2021/05/21 03:49:38;;;;;;;2.80;2.53;;;8.20;99.90;;;;;;4976321;28;20023;-71
2021/05/21 03:52:04;;;;;;;3.85;3.13;;;8.10;99.90;;;;;;4976640;28;20107;-71
2021/05/21 03:54:29;;;;;;;6.13;3.13;;;8.10;99.90;;;;;;4975491;28;20054;-71
2021/05/21 03:56:55;;;;;;;4.47;2.72;;;8.20;99.90;;;;;;4975575;28;20077;-71
2021/05/21 03:59:21;;;;;;;5.32;2.92;;;8.20;99.90;;;;;;4975988;28;20470;-72
2021/05/21 04:01:48;;;;;;;5.63;3.45;;;8.30;99.90;;;;;;4974610;28;20031;-71
2021/05/21 04:04:14;;;;;;;3.15;2.95;;;8.20;99.90;;;;;;4975173;28;20033;-72
2021/05/21 04:06:40;;;;;;;5.00;2.47;;;8.20;99.90;;;;;;4975494;28;20031;-71
2021/05/21 04:09:07;;;;;;;2.85;2.65;;;8.20;99.90;;;;;;4974291;28;20370;-71
2021/05/21 04:11:37;;;;;;;3.58;2.40;;;8.20;99.90;;;;;;4975656;28;20031;-72
2021/05/21 04:14:05;;;;;;;3.05;2.85;;;8.10;99.90;;;;;;4975112;28;20448;-71
2021/05/21 04:16:31;;;;;;;3.70;2.70;;;8.30;99.90;;;;;;4975499;28;20122;-72
2021/05/21 04:18:57;;;;;;;3.75;2.13;;;8.20;99.90;;;;;;4976022;28;20597;-72
2021/05/21 04:21:23;;;;;;;4.38;2.28;;;8.20;99.90;;;;;;4967545;28;20199;-72
2021/05/21 04:23:49;;;;;;;4.18;2.10;;;8.10;99.90;;;;;;4974120;28;20500;-73
2021/05/21 04:26:16;;;;;;;2.60;2.40;;;8.30;99.90;;;;;;4974562;28;20165;-72
2021/05/21 04:28:42;;;;;;;3.13;2.45;;;8.30;99.90;;;;;;4969269;28;20031;-72
2021/05/21 04:31:08;;;;;;;2.35;2.15;;;8.40;99.90;;;;;;4952790;29;20097;-71
2021/05/21 04:33:35;;;;;;;2.30;1.85;;;8.50;99.90;;;;;;4952593;29;20139;-72
2021/05/21 04:36:00;;;;;;;4.78;2.10;;;8.50;99.90;;;;;;4954839;28;20031;-72
2021/05/21 04:38:27;;;;;;;3.75;2.10;;;8.50;99.90;;;;;;4954567;28;20033;-73
2021/05/21 04:40:53;;;;;;;2.38;2.17;;;8.60;99.90;;;;;;4973015;28;20031;-73
2021/05/21 04:43:23;;;;;;;2.30;2.10;;;8.50;99.90;;;;;;4990637;28;20110;-71
2021/05/21 04:45:49;;;;;;;5.88;2.53;;;8.60;99.90;;;;;;4976237;28;20041;-72
2021/05/21 04:48:15;;;;;;;4.78;2.47;;;8.70;99.90;;;;;;4973284;28;20023;-71
2021/05/21 04:50:41;;;;;;;2.45;2.25;;;8.70;99.90;;;;;;4971781;28;20045;-72
2021/05/21 04:53:07;;;;;;;4.22;2.60;;;8.70;99.90;;;;;;4988098;28;20541;-71
2021/05/21 04:55:32;;;;;;;3.03;2.13;;;8.80;99.90;;;;;;4974496;28;20027;-72
2021/05/21 04:57:58;;;;;;;4.95;2.28;;;8.80;99.90;;;;;;4977860;28;20397;-70
2021/05/21 05:00:24;;;;;;;1.90;1.80;;;8.80;99.90;;;;;;4975628;28;20057;-72
2021/05/21 05:02:49;;;;;;;1.95;1.85;;;9.00;99.90;;;;;;4974502;28;20121;-73
2021/05/21 05:05:15;;;;;;;3.58;2.53;;;9.10;99.90;;;;;;4973196;28;20038;-75
2021/05/21 05:07:41;;;;;;;5.95;2.40;;;9.20;99.90;;;;;;4973729;28;20027;-75
2021/05/21 05:10:07;;;;;;;4.35;2.50;;;9.50;99.90;;;;;;4974721;28;20023;-75
2021/05/21 05:12:32;;;;;;;4.32;2.60;;;9.70;99.90;;;;;;4974034;28;20381;-75
2021/05/21 05:14:58;;;;;;;5.13;2.20;;;9.80;99.90;;;;;;4972797;28;20030;-75
2021/05/21 05:17:24;;;;;;;2.42;2.22;;;10.00;99.90;;;;;;4973458;28;20027;-75
2021/05/21 05:19:49;;;;;;;4.07;2.63;;;10.00;99.90;;;;;;4973610;28;20532;-74
2021/05/21 05:22:15;;;;;;;4.53;2.47;;;10.10;99.90;;;;;;4970115;28;20057;-74
2021/05/21 05:24:41;;;;;;;4.53;2.50;;;10.20;99.90;;;;;;4969869;28;20022;-74
2021/05/21 05:27:07;;;;;;;6.38;2.13;;;10.30;99.90;;;;;;4969036;28;20031;-73
2021/05/21 05:29:35;;;;;;;3.10;2.22;;;10.30;99.90;;;;;;4954152;28;20401;-72
2021/05/21 05:32:02;;;;;;;2.72;2.08;;;10.30;99.90;;;;;;4970968;28;20076;-73
2021/05/21 05:34:28;;;;;;;4.38;2.47;;;10.30;99.90;;;;;;4974766;28;20572;-73
2021/05/21 05:36:54;;;;;;;5.18;2.47;;;10.40;99.90;;;;;;4978162;28;20039;-75
2021/05/21 05:39:21;;;;;;;4.10;2.63;;;10.50;99.90;;;;;;4976443;28;20027;-76
2021/05/21 05:41:50;;;;;;;4.60;2.30;;;10.60;99.90;;;;;;4975367;28;20031;-74
2021/05/21 05:44:17;;;;;;;6.30;2.53;;;10.70;99.90;;;;;;4972760;28;20030;-73
2021/05/21 05:46:43;;;;;;;3.80;1.92;;;10.80;99.90;;;;;;4972974;28;20058;-75
2021/05/21 05:49:09;;;;;;;4.93;2.17;;;10.70;99.90;;;;;;4973206;28;20081;-73
2021/05/21 05:51:34;;;;;;;5.38;2.28;;;10.90;99.90;;;;;;4972970;28;20461;-74
2021/05/21 05:54:00;;;;;;;2.95;2.17;;;11.10;99.90;;;;;;4972405;28;20030;-73
2021/05/21 05:56:26;;;;;;;4.18;2.40;;;11.20;99.90;;;;;;4972234;28;20034;-73
2021/05/21 05:58:51;;;;;;;7.65;2.60;;;11.20;99.90;;;;;;4972972;28;20038;-74
2021/05/21 06:01:17;;;;;;;5.28;2.20;;;11.20;99.90;;;;;;4970682;28;20074;-73
2021/05/21 06:03:43;;;;;;;8.60;2.05;;;11.20;99.90;;;;;;4966853;28;20033;-72
2021/05/21 06:06:08;;;;;;;6.80;2.55;;;11.30;99.90;;;;;;4971369;28;20106;-75
2021/05/21 06:08:34;;;;;;;2.05;1.92;;;11.50;99.90;;;;;;4957663;28;20106;-72
2021/05/21 06:11:00;;;;;;;4.07;2.35;;;11.70;99.90;;;;;;4967170;28;20061;-71
2021/05/21 06:13:26;;;;;;;2.80;1.88;;;11.70;99.90;;;;;;4970618;28;20154;-72
2021/05/21 06:15:53;;;;;;;3.42;1.88;;;11.90;99.90;;;;;;4971067;28;20037;-73
2021/05/21 06:18:19;;;;;;;2.38;1.48;;;12.10;99.90;;;;;;4971655;28;20026;-73
2021/05/21 06:20:45;;;;;;;5.95;2.08;;;12.10;99.90;;;;;;4970985;28;20421;-70
2021/05/21 06:23:11;;;;;;;3.17;1.80;;;12.20;99.90;;;;;;4970884;28;20045;-73
2021/05/21 06:28:16;;;;;;;8.82;2.15;;;12.20;99.90;;;;;;4971162;28;20130;-70
2021/05/21 06:30:42;;;;;;;3.42;2.20;;;12.30;99.90;;;;;;4971390;28;20027;-72
2021/05/21 06:33:07;;;;;;;4.50;2.08;;;12.30;99.90;;;;;;4970861;28;20536;-71
2021/05/21 06:35:36;;;;;;;3.40;2.08;;;12.30;99.90;;;;;;4971472;28;20030;-73
2021/05/21 06:38:03;;;;;;;2.92;2.20;;;12.50;99.90;;;;;;4971412;28;20568;-72
2021/05/21 06:40:29;;;;;;;2.83;2.25;;;12.60;99.90;;;;;;4970733;28;20030;-71
2021/05/21 06:42:55;;;;;;;1.85;1.63;;;12.40;99.90;;;;;;4969542;28;20069;-72
2021/05/21 06:45:21;;;;;;;3.33;2.08;;;12.40;99.90;;;;;;4991125;28;20042;-72
2021/05/21 06:47:46;;;;;;;6.28;2.40;;;12.40;99.90;;;;;;4966147;28;20038;-75
2021/05/21 06:50:13;;;;;;;4.20;1.90;;;12.60;99.90;;;;;;4948827;28;20035;-72
2021/05/21 06:52:39;;;;;;;4.75;2.20;;;12.70;99.90;;;;;;4951623;28;20027;-73
2021/05/21 06:55:06;;;;;;;3.10;2.30;;;12.70;99.90;;;;;;4950789;28;20031;-71
2021/05/21 06:57:32;;;;;;;8.25;2.28;;;12.70;99.90;;;;;;4952207;28;20031;-72
2021/05/21 06:59:58;;;;;;;5.68;2.63;;;13.10;99.90;;;;;;4982755;28;20050;-72
2021/05/21 07:02:26;;;;;;;4.50;2.03;;;13.40;99.90;;;;;;4969635;28;20030;-72
2021/05/21 07:04:52;;;;;;;6.75;2.65;;;13.50;99.90;;;;;;4971059;28;20393;-71
2021/05/21 07:07:18;;;;;;;5.05;2.10;;;13.50;99.90;;;;;;4969279;28;20027;-70
2021/05/21 07:09:44;;;;;;;5.32;2.22;;;13.60;99.90;;;;;;4985804;28;20404;-73
2021/05/21 07:12:10;;;;;;;2.80;2.20;;;13.60;99.90;;;;;;4985391;28;20162;-74
2021/05/21 07:14:36;;;;;;;3.22;2.20;;;13.80;99.90;;;;;;4970960;28;20106;-72
2021/05/21 07:17:03;;;;;;;4.25;2.30;;;13.90;99.90;;;;;;4970760;28;20635;-73
2021/05/21 07:19:29;;;;;;;4.90;2.20;;;14.20;99.90;;;;;;4971192;28;20054;-72
2021/05/21 07:21:55;;;;;;;3.47;2.47;;;14.40;99.90;;;;;;4971334;28;20035;-71
2021/05/21 07:24:20;;;;;;;5.25;2.70;;;14.80;99.90;;;;;;4970634;28;20030;-71
2021/05/21 07:26:46;;;;;;;10.02;2.50;;;14.80;99.90;;;;;;4971453;28;20019;-72
2021/05/21 07:29:12;;;;;;;5.53;2.20;;;15.00;99.90;;;;;;4975397;28;20061;-72
2021/05/21 07:31:38;;;;;;;8.77;2.65;;;15.10;99.90;;;;;;4970719;28;20023;-73
2021/05/21 07:34:03;;;;;;;2.70;1.48;;;15.10;99.90;;;;;;4968598;28;20442;-72
2021/05/21 07:36:31;;;;;;;3.80;1.80;;;15.40;99.90;;;;;;4971042;28;20049;-75
2021/05/21 07:38:58;;;;;;;3.13;1.58;;;15.40;99.90;;;;;;4969894;28;20473;-74
2021/05/21 07:41:25;;;;;;;3.40;1.80;;;15.50;99.90;;;;;;4971001;28;20053;-74
2021/05/21 07:43:54;;;;;;;5.70;1.70;;;15.40;99.90;;;;;;4970109;28;20038;-70
2021/05/21 07:46:22;;;;;;;7.65;1.23;;;15.40;99.90;;;;;;4969363;28;20035;-71
2021/05/21 07:48:49;;;;;;;3.22;1.55;;;15.40;99.90;;;;;;4970630;28;20045;-71
2021/05/21 07:51:18;;;;;;;4.13;1.08;;;15.50;99.90;;;;;;4970407;28;20482;-73
2021/05/21 07:53:44;;;;;;;3.00;1.05;;;15.90;99.90;;;;;;4970127;28;20030;-73
2021/05/21 07:56:10;;;;;;;2.90;0.95;;;16.00;99.90;;;;;;4973080;28;20027;-74
2021/05/21 07:58:36;;;;;;;1.40;0.70;;;16.00;99.90;;;;;;4972244;28;20015;-72
2021/05/21 08:01:03;;;;;;;2.75;0.80;;;16.10;99.90;;;;;;4971845;28;20038;-73
2021/05/21 08:03:29;;;;;;;0.65;0.60;;;16.10;99.90;;;;;;4960932;28;20029;-73
2021/05/21 08:05:57;;;;;;;1.83;0.60;;;16.00;99.90;;;;;;4971008;28;20026;-72
2021/05/21 08:08:23;;;;;;;4.25;1.10;;;16.10;99.90;;;;;;4971957;28;20054;-73
2021/05/21 08:10:53;;;;;;;0.60;0.60;;;16.20;99.90;;;;;;4971950;28;20069;-72
2021/05/21 08:13:19;;;;;;;3.50;1.10;;;16.10;99.90;;;;;;4971886;28;20110;-74
2021/05/21 08:15:45;;;;;;;1.15;0.70;;;16.00;99.90;;;;;;4972337;28;20023;-73
2021/05/21 08:18:11;;;;;;;3.88;0.73;;;15.90;99.90;;;;;;4971378;28;20026;-74
2021/05/21 08:20:37;;;;;;;1.67;0.60;;;15.90;99.90;;;;;;4972825;28;20109;-72
2021/05/21 08:23:07;;;;;;;13.07;0.82;;;15.90;99.90;;;;;;4972503;28;20081;-74
2021/05/21 08:25:33;;;;;;;6.82;0.70;;;16.10;99.90;;;;;;4976755;28;20034;-74
2021/05/21 08:27:58;;;;;;;1.42;0.70;;;16.10;99.90;;;;;;4974927;28;20085;-74
2021/05/21 08:30:24;;;;;;;5.03;1.10;;;16.10;99.90;;;;;;4976783;28;20027;-77
2021/05/21 08:32:51;;;;;;;1.85;1.02;;;16.40;99.90;;;;;;4976158;28;20078;-79
2021/05/21 08:35:18;;;;;;;2.50;0.98;;;16.70;99.90;;;;;;4975123;28;20031;-77
2021/05/21 08:37:44;;;;;;;4.07;0.70;;;16.90;99.90;;;;;;4975928;28;20673;-73
2021/05/21 08:40:12;;;;;;;1.98;0.80;;;16.80;99.90;;;;;;4974489;28;20038;-73
2021/05/21 08:42:40;;;;;;;3.90;0.77;;;16.60;99.90;;;;;;4973865;28;20488;-73
2021/05/21 08:45:09;;;;;;;8.65;0.90;;;16.30;99.90;;;;;;4974616;28;20042;-75
2021/05/21 08:47:36;;;;;;;2.75;0.63;;;16.00;99.90;;;;;;4974351;28;20038;-73
2021/05/21 08:50:07;;;;;;;6.10;1.00;;;15.90;99.90;;;;;;4975945;28;20038;-73
2021/05/21 08:52:34;;;;;;;1.77;0.77;;;15.70;99.90;;;;;;4978648;28;20054;-74
2021/05/21 08:54:59;;;;;;;3.60;0.82;;;15.60;99.90;;;;;;4977272;28;20026;-74
2021/05/21 08:57:29;;;;;;;2.35;0.65;;;15.70;99.90;;;;;;4974237;28;20367;-74
2021/05/21 08:59:54;;;;;;;2.97;0.63;;;15.70;99.90;;;;;;4973499;28;20034;-74
2021/05/21 09:02:28;;;;;;;0.85;0.52;;;15.70;99.90;;;;;;4977872;28;20042;-74
2021/05/21 09:04:57;;;;;;;4.45;0.57;;;15.70;99.90;;;;;;4977661;28;20458;-72
2021/05/21 09:07:27;;;;;;;2.17;0.80;;;15.70;99.90;;;;;;4959330;28;20141;-73
2021/05/21 09:09:54;;;;;;;0.47;0.47;;;15.50;99.90;;;;;;4955142;28;20023;-73
2021/05/21 09:12:22;;;;;;;6.13;0.65;;;15.50;99.90;;;;;;4954356;28;20406;-74
2021/05/21 09:15:17;;;;;;;6.13;0.50;;;15.50;99.90;;;;;;4953664;28;20106;-73
2021/05/21 09:18:00;;;;;;;7.40;0.50;;;15.60;99.90;;;;;;4954364;28;20031;-74
2021/05/21 09:20:39;;;;;;;9.45;0.88;;;15.60;99.90;;;;;;4953078;28;20031;-74
2021/05/21 09:23:06;;;;;;;5.90;0.85;;;15.70;99.90;;;;;;4952802;29;20170;-73
2021/05/21 09:25:40;;;;;;;2.10;0.75;;;15.80;99.90;;;;;;4953498;28;20046;-72
2021/05/21 09:28:36;;;;;;;2.10;0.40;;;15.60;99.90;;;;;;4971528;28;20030;-72
2021/05/21 09:31:11;;;;;;;1.52;0.70;;;15.70;99.90;;;;;;4970594;28;20494;-74
2021/05/21 09:33:38;;;;;;;1.10;0.45;;;15.90;99.90;;;;;;4972846;28;20405;-73
2021/05/21 09:36:05;;;;;;;3.05;0.90;;;16.00;99.90;;;;;;4971742;28;20027;-74
2021/05/21 09:38:47;;;;;;;1.17;0.60;;;15.90;99.90;;;;;;4970812;28;20062;-73
2021/05/21 09:41:13;;;;;;;;;;;16.10;99.90;;;;;;4972661;28;20031;-75
2021/05/21 09:43:39;;;;;;;5.97;1.13;;;16.10;99.90;;;;;;4971966;28;19991;-72
2021/05/21 09:46:09;;;;;;;1.13;0.50;;;15.80;99.90;;;;;;4972673;28;20417;-72
2021/05/21 09:48:36;;;;;;;1.65;0.60;;;15.80;99.90;;;;;;4971808;28;20418;-72
2021/05/21 09:51:01;;;;;;;3.30;0.90;;;16.10;99.90;;;;;;4973347;28;20030;-73
2021/05/21 09:53:27;;;;;;;0.73;0.55;;;16.00;99.90;;;;;;4972213;28;20041;-72
2021/05/21 09:55:59;;;;;;;0.70;0.70;;;15.90;99.90;;;;;;4972196;28;20085;-74
2021/05/21 09:58:41;;;;;;;3.22;0.70;;;15.80;99.90;;;;;;4972347;28;20366;-71
2021/05/21 10:01:15;;;;;;;0.90;0.50;;;15.60;99.90;;;;;;4979853;28;20041;-73
2021/05/21 10:03:49;;;;;;;2.42;0.80;;;15.70;99.90;;;;;;4973988;28;20473;-74
2021/05/21 10:06:17;;;;;;;0.65;0.47;;;15.70;99.90;;;;;;4975872;28;20054;-74
2021/05/21 10:08:47;;;;;;;1.25;0.50;;;15.50;99.90;;;;;;4979047;28;20023;-74
2021/05/21 10:11:13;;;;;;;1.02;0.60;;;15.30;99.90;;;;;;4971348;28;20416;-74
2021/05/21 10:13:45;;;;;;;2.97;0.70;;;15.20;99.90;;;;;;4968098;28;20405;-73
2021/05/21 10:16:12;;;;;;;1.67;0.55;;;15.30;99.90;;;;;;4969088;28;20085;-71
2021/05/21 10:18:38;;;;;;;3.25;0.30;;;15.20;99.90;;;;;;4968419;28;20034;-73
2021/05/21 10:21:06;;;;;;;0.30;0.30;;;15.20;99.90;;;;;;4968563;28;20085;-72
2021/05/21 10:23:37;;;;;;;1.55;0.50;;;15.10;99.90;;;;;;4982610;28;20023;-70
2021/05/21 10:26:11;;;;;;;0.57;0.45;;;15.00;99.90;;;;;;4967131;28;20038;-72
2021/05/21 10:28:40;;;;;;;0.82;0.60;;;15.10;99.90;;;;;;4967644;28;20142;-75
2021/05/21 10:31:09;;;;;;;1.05;0.50;;;15.40;99.90;;;;;;4968597;28;20050;-76
2021/05/21 10:33:36;;;;;;;1.77;0.57;;;15.90;99.90;;;;;;4968281;28;20030;-77
2021/05/21 10:36:24;;;;;;;2.47;0.75;;;16.30;99.90;;;;;;4968483;28;20031;-76
2021/05/21 10:39:12;;;;;;;3.33;0.82;;;16.50;99.90;;;;;;4968305;28;20030;-73
2021/05/21 10:42:00;;;;;;;0.40;0.40;;;16.40;99.90;;;;;;4968087;28;20027;-77
2021/05/21 10:44:36;;;;;;;1.95;0.65;;;16.20;99.90;;;;;;4967199;28;20039;-75
2021/05/21 10:47:20;;;;;;;0.40;0.40;;;15.30;99.90;;;;;;4966454;28;20053;-73
2021/05/21 10:49:52;;;;;;;0.70;0.43;;;15.10;99.90;;;;;;4967807;28;20166;-74
2021/05/21 10:52:41;;;;;;;1.98;0.40;;;15.10;99.90;;;;;;4967637;28;20047;-73
2021/05/21 10:55:07;;;;;;;0.55;0.30;;;15.00;99.90;;;;;;4965639;28;20039;-78
2021/05/21 10:57:33;;;;;;;1.00;0.60;;;15.10;99.90;;;;;;4970132;28;20038;-78
2021/05/21 11:00:00;;;;;;;0.30;0.30;;;15.20;99.90;;;;;;4966589;28;20062;-79
2021/05/21 11:02:42;;;;;;;2.95;0.50;;;15.20;99.90;;;;;;4971341;28;20038;-78
2021/05/21 11:05:32;;;;;;;0.82;0.50;;;14.50;99.90;;;;;;4984015;28;20022;-78
2021/05/21 11:08:00;;;;;;;1.00;0.40;;;14.40;99.90;;;;;;4990926;28;20042;-77
2021/05/21 11:10:50;;;;;;;0.43;0.43;;;14.50;99.90;;;;;;4991044;28;20093;-76
2021/05/21 11:13:17;;;;;;;1.55;0.60;;;14.50;99.90;;;;;;4992790;28;20037;-76
2021/05/21 11:15:47;;;;;;;1.30;0.50;;;14.30;99.90;;;;;;4993454;28;20109;-78
2021/05/21 11:18:16;;;;;;;0.40;0.40;;;14.30;99.90;;;;;;5004484;28;20120;-78
2021/05/21 11:21:08;;;;;;;0.80;0.45;;;14.10;99.90;;;;;;4991845;28;20038;-76
2021/05/21 11:23:45;;;;;;;0.57;0.55;;;14.30;99.90;;;;;;4991319;28;20034;-76
2021/05/21 11:26:14;;;;;;;1.95;0.52;;;14.40;99.90;;;;;;4987203;28;20039;-80
2021/05/21 11:29:00;;;;;;;0.40;0.40;;;14.50;99.90;;;;;;4972970;28;20112;-76
2021/05/21 11:31:31;;;;;;;1.35;0.60;;;14.60;99.90;;;;;;4979584;28;20034;-76
2021/05/21 11:33:59;;;;;;;1.65;0.90;;;14.90;99.90;;;;;;4967915;28;20079;-78
2021/05/21 11:36:27;;;;;;;7.70;4.25;;;15.10;99.90;;;;;;4968190;28;20027;-77
2021/05/21 11:38:53;;;;;;;4.78;0.60;;;15.10;99.90;;;;;;4967995;28;20031;-77
2021/05/21 11:41:28;;;;;;;2.08;0.77;;;14.90;99.90;;;;;;4967220;28;20035;-78
2021/05/21 11:43:54;;;;;;;1.05;0.55;;;14.80;99.90;;;;;;4967168;28;20026;-77
2021/05/21 11:46:21;;;;;;;0.98;0.50;;;14.90;99.90;;;;;;4983193;28;20085;-77
2021/05/21 11:48:49;;;;;;;2.05;0.55;;;14.90;99.90;;;;;;4987944;28;20041;-77
2021/05/21 11:51:22;;;;;;;1.40;0.73;;;14.70;99.90;;;;;;4988088;28;20512;-77
2021/05/21 11:54:07;;;;;;;1.45;0.60;;;14.80;99.90;;;;;;4966873;28;20106;-72
2021/05/21 11:56:37;;;;;;;1.52;0.60;;;14.60;99.90;;;;;;4965499;28;20062;-72
2021/05/21 11:59:08;;;;;;;1.08;0.55;;;14.70;99.90;;;;;;4976065;28;20041;-73
2021/05/21 12:01:35;;;;;;;2.13;0.80;;;14.60;99.90;;;;;;4989614;28;20031;-72
2021/05/21 12:04:07;;;;;;;1.33;0.90;;;14.70;99.90;;;;;;4989056;28;20559;-73
2021/05/21 12:06:33;;;;;;;0.40;0.40;;;14.60;99.90;;;;;;4978310;28;20051;-70
2021/05/21 12:09:03;;;;;;;1.02;0.60;;;14.80;99.90;;;;;;4971321;28;20043;-73
2021/05/21 12:11:28;;;;;;;0.65;0.50;;;14.80;99.90;;;;;;4970597;28;20030;-71
2021/05/21 12:14:02;;;;;;;1.95;0.60;;;14.90;99.90;;;;;;4968465;28;20037;-72
2021/05/21 12:16:30;;;;;;;2.00;0.40;;;14.90;99.90;;;;;;4969558;28;20031;-73
2021/05/21 12:18:56;;;;;;;0.63;0.60;;;15.00;99.90;;;;;;4966856;28;20039;-71
2021/05/21 12:21:24;;;;;;;4.25;0.50;;;15.00;99.90;;;;;;4975855;28;20038;-71
2021/05/21 12:23:51;;;;;;;1.33;0.40;;;14.90;99.90;;;;;;4989255;28;20034;-72
2021/05/21 12:26:22;;;;;;;1.20;0.50;;;14.70;99.90;;;;;;4990311;28;20093;-72
2021/05/21 12:28:49;;;;;;;1.75;0.43;;;14.70;99.90;;;;;;4991802;28;20057;-70
2021/05/21 12:31:18;;;;;;;1.17;0.40;;;14.90;99.90;;;;;;4991772;28;20428;-70
2021/05/21 12:33:44;;;;;;;1.08;0.60;;;14.70;99.90;;;;;;4996921;28;20041;-69
2021/05/21 12:36:14;;;;;;;6.10;0.60;;;14.80;99.90;;;;;;4998495;28;20030;-71
2021/05/21 12:38:48;;;;;;;3.00;0.50;;;14.80;99.90;;;;;;4990650;28;20042;-71
2021/05/21 12:41:15;;;;;;;0.40;0.40;;;14.60;99.90;;;;;;4991431;28;20061;-71
2021/05/21 12:43:40;;;;;;;1.10;0.80;;;14.40;99.90;;;;;;4990304;28;20042;-70
2021/05/21 12:46:07;;;;;;;2.38;0.75;;;14.50;99.90;;;;;;4991043;28;20035;-71
2021/05/21 12:48:42;;;;;;;2.33;0.70;;;14.50;99.90;;;;;;4989915;28;20031;-71
2021/05/21 12:51:16;;;;;;;2.40;0.60;;;14.50;99.90;;;;;;4989533;28;20085;-73
2021/05/21 12:53:43;;;;;;;0.30;0.30;;;14.70;99.90;;;;;;4990421;28;20042;-72
2021/05/21 12:56:08;;;;;;;1.27;0.60;;;14.30;99.90;;;;;;4991678;28;20038;-70